sensor_id;sensor_type;location;lat;lon;timestamp;pressure;altitude;pressure_sealevel;temperature;humidity
76311;BME280;65120;59.304;18.294;2023-12-29T00:01:52;99606.38;;;0.89;82.46
76311;BME280;65120;59.304;18.294;2023-12-29T00:04:20;99601.22;;;0.89;82.52
76311;BME280;65120;59.304;18.294;2023-12-29T00:06:46;99597.81;;;0.89;82.10
76311;BME280;65120;59.304;18.294;2023-12-29T00:09:14;99600.38;;;0.89;82.17
76311;BME280;65120;59.304;18.294;2023-12-29T00:11:41;99598.66;;;0.89;82.52
76311;BME280;65120;59.304;18.294;2023-12-29T00:14:09;99582.34;;;0.89;82.05
76311;BME280;65120;59.304;18.294;2023-12-29T00:16:36;99582.34;;;0.89;82.13
76311;BME280;65120;59.304;18.294;2023-12-29T00:19:03;99578.94;;;0.88;82.43
76311;BME280;65120;59.304;18.294;2023-12-29T00:21:30;99578.06;;;0.89;82.40
76311;BME280;65120;59.304;18.294;2023-12-29T00:23:57;99566.06;;;0.88;82.38
76311;BME280;65120;59.304;18.294;2023-12-29T00:26:24;99566.06;;;0.88;81.92
76311;BME280;65120;59.304;18.294;2023-12-29T00:28:51;99564.31;;;0.87;82.25
76311;BME280;65120;59.304;18.294;2023-12-29T00:31:19;99554.03;;;0.87;81.99
76311;BME280;65120;59.304;18.294;2023-12-29T00:33:46;99548.03;;;0.87;81.85
76311;BME280;65120;59.304;18.294;2023-12-29T00:36:17;99539.44;;;0.86;82.07
76311;BME280;65120;59.304;18.294;2023-12-29T00:38:45;99545.47;;;0.88;82.33
76311;BME280;65120;59.304;18.294;2023-12-29T00:41:12;99543.72;;;0.87;81.95
76311;BME280;65120;59.304;18.294;2023-12-29T00:43:39;99537.72;;;0.87;82.12
76311;BME280;65120;59.304;18.294;2023-12-29T00:46:06;99539.41;;;0.88;81.84
76311;BME280;65120;59.304;18.294;2023-12-29T00:48:35;99526.56;;;0.88;81.96
76311;BME280;65120;59.304;18.294;2023-12-29T00:51:02;99530.00;;;0.88;81.88
76311;BME280;65120;59.304;18.294;2023-12-29T00:53:29;99513.66;;;0.88;82.06
76311;BME280;65120;59.304;18.294;2023-12-29T00:55:57;99504.25;;;0.88;82.00
76311;BME280;65120;59.304;18.294;2023-12-29T00:58:24;99501.69;;;0.84;82.07
76311;BME280;65120;59.304;18.294;2023-12-29T01:00:51;99524.84;;;0.88;81.61
76311;BME280;65120;59.304;18.294;2023-12-29T01:03:18;99504.25;;;0.88;81.63
76311;BME280;65120;59.304;18.294;2023-12-29T01:05:47;99486.22;;;0.88;81.73
76311;BME280;65120;59.304;18.294;2023-12-29T01:08:14;99506.84;;;0.88;81.78
76311;BME280;65120;59.304;18.294;2023-12-29T01:10:41;99497.38;;;0.87;82.18
76311;BME280;65120;59.304;18.294;2023-12-29T01:13:08;99511.97;;;0.88;81.68
76311;BME280;65120;59.304;18.294;2023-12-29T01:15:35;99503.38;;;0.88;81.81
76311;BME280;65120;59.304;18.294;2023-12-29T01:18:01;99499.94;;;0.87;81.64
76311;BME280;65120;59.304;18.294;2023-12-29T01:20:28;99488.78;;;0.87;81.58
76311;BME280;65120;59.304;18.294;2023-12-29T01:22:57;99492.22;;;0.87;81.50
76311;BME280;65120;59.304;18.294;2023-12-29T01:25:24;99479.34;;;0.87;82.10
76311;BME280;65120;59.304;18.294;2023-12-29T01:27:51;99476.78;;;0.87;81.40
76311;BME280;65120;59.304;18.294;2023-12-29T01:30:17;99474.19;;;0.87;81.79
76311;BME280;65120;59.304;18.294;2023-12-29T01:32:44;99464.78;;;0.86;81.56
76311;BME280;65120;59.304;18.294;2023-12-29T01:35:11;99454.47;;;0.86;81.56
76311;BME280;65120;59.304;18.294;2023-12-29T01:37:38;99457.06;;;0.86;81.96
76311;BME280;65120;59.304;18.294;2023-12-29T01:40:08;99451.03;;;0.87;81.57
76311;BME280;65120;59.304;18.294;2023-12-29T01:42:35;99453.59;;;0.87;81.84
76311;BME280;65120;59.304;18.294;2023-12-29T01:45:02;99456.19;;;0.87;81.96
76311;BME280;65120;59.304;18.294;2023-12-29T01:47:29;99456.19;;;0.87;81.99
76311;BME280;65120;59.304;18.294;2023-12-29T01:49:57;99466.47;;;0.87;81.99
76311;BME280;65120;59.304;18.294;2023-12-29T01:52:24;99456.19;;;0.87;81.86
76311;BME280;65120;59.304;18.294;2023-12-29T01:54:52;99462.19;;;0.86;81.56
76311;BME280;65120;59.304;18.294;2023-12-29T01:57:21;99465.66;;;0.85;81.94
76311;BME280;65120;59.304;18.294;2023-12-29T01:59:48;99472.50;;;0.85;81.96
76311;BME280;65120;59.304;18.294;2023-12-29T02:02:16;99468.22;;;0.85;81.93
76311;BME280;65120;59.304;18.294;2023-12-29T02:04:44;99452.78;;;0.85;82.03
76311;BME280;65120;59.304;18.294;2023-12-29T02:07:11;99442.47;;;0.85;81.52
76311;BME280;65120;59.304;18.294;2023-12-29T02:09:39;99434.75;;;0.85;81.71
76311;BME280;65120;59.304;18.294;2023-12-29T02:12:06;99424.47;;;0.80;81.52
76311;BME280;65120;59.304;18.294;2023-12-29T02:14:34;99422.72;;;0.84;81.96
76311;BME280;65120;59.304;18.294;2023-12-29T02:17:16;99420.16;;;0.86;81.67
76311;BME280;65120;59.304;18.294;2023-12-29T02:19:49;99410.69;;;0.85;81.62
76311;BME280;65120;59.304;18.294;2023-12-29T02:22:16;99416.72;;;0.85;81.90
76311;BME280;65120;59.304;18.294;2023-12-29T02:24:48;99421.00;;;0.86;81.82
76311;BME280;65120;59.304;18.294;2023-12-29T02:27:23;99409.84;;;0.86;81.91
76311;BME280;65120;59.304;18.294;2023-12-29T02:30:02;99406.41;;;0.87;81.63
76311;BME280;65120;59.304;18.294;2023-12-29T02:32:32;99397.81;;;0.86;81.61
76311;BME280;65120;59.304;18.294;2023-12-29T02:35:01;99387.53;;;0.86;81.74
76311;BME280;65120;59.304;18.294;2023-12-29T02:37:29;99381.50;;;0.87;81.93
76311;BME280;65120;59.304;18.294;2023-12-29T02:39:59;99387.53;;;0.86;81.90
76311;BME280;65120;59.304;18.294;2023-12-29T02:42:26;99393.53;;;0.87;82.06
76311;BME280;65120;59.304;18.294;2023-12-29T02:44:53;99390.09;;;0.86;81.97
76311;BME280;65120;59.304;18.294;2023-12-29T02:47:20;99385.81;;;0.85;81.68
76311;BME280;65120;59.304;18.294;2023-12-29T02:49:47;99384.94;;;0.86;81.89
76311;BME280;65120;59.304;18.294;2023-12-29T02:52:15;99372.94;;;0.87;81.76
76311;BME280;65120;59.304;18.294;2023-12-29T02:54:42;99360.06;;;0.87;81.75
76311;BME280;65120;59.304;18.294;2023-12-29T02:57:10;99366.06;;;0.86;82.11
76311;BME280;65120;59.304;18.294;2023-12-29T02:59:37;99349.78;;;0.85;82.02
76311;BME280;65120;59.304;18.294;2023-12-29T03:02:04;99350.63;;;0.86;81.73
76311;BME280;65120;59.304;18.294;2023-12-29T03:04:31;99348.03;;;0.84;82.01
76311;BME280;65120;59.304;18.294;2023-12-29T03:06:58;99348.91;;;0.86;82.03
76311;BME280;65120;59.304;18.294;2023-12-29T03:09:25;99340.34;;;0.86;81.83
76311;BME280;65120;59.304;18.294;2023-12-29T03:11:52;99328.31;;;0.86;81.67
76311;BME280;65120;59.304;18.294;2023-12-29T03:14:20;99324.00;;;0.88;82.00
76311;BME280;65120;59.304;18.294;2023-12-29T03:16:47;99324.84;;;0.89;81.86
76311;BME280;65120;59.304;18.294;2023-12-29T03:19:14;99310.25;;;0.89;81.73
76311;BME280;65120;59.304;18.294;2023-12-29T03:21:41;99301.69;;;0.89;82.04
76311;BME280;65120;59.304;18.294;2023-12-29T03:24:08;99293.97;;;0.87;82.04
76311;BME280;65120;59.304;18.294;2023-12-29T03:26:35;99290.53;;;0.88;82.15
76311;BME280;65120;59.304;18.294;2023-12-29T03:29:02;99287.06;;;0.88;82.10
76311;BME280;65120;59.304;18.294;2023-12-29T03:31:30;99291.38;;;0.89;82.14
76311;BME280;65120;59.304;18.294;2023-12-29T03:33:57;99265.69;;;0.83;81.75
76311;BME280;65120;59.304;18.294;2023-12-29T03:36:24;99271.63;;;0.88;82.15
76311;BME280;65120;59.304;18.294;2023-12-29T03:38:51;99264.81;;;0.85;82.11
76311;BME280;65120;59.304;18.294;2023-12-29T03:41:18;99257.94;;;0.86;82.13
76311;BME280;65120;59.304;18.294;2023-12-29T03:43:45;99258.75;;;0.89;82.12
76311;BME280;65120;59.304;18.294;2023-12-29T03:46:16;99250.19;;;0.87;81.73
76311;BME280;65120;59.304;18.294;2023-12-29T03:48:45;99237.34;;;0.86;82.19
76311;BME280;65120;59.304;18.294;2023-12-29T03:51:13;99243.31;;;0.88;82.09
76311;BME280;65120;59.304;18.294;2023-12-29T03:53:40;99240.75;;;0.91;81.98
76311;BME280;65120;59.304;18.294;2023-12-29T03:56:07;99240.75;;;0.91;82.05
76311;BME280;65120;59.304;18.294;2023-12-29T03:58:35;99236.44;;;0.91;82.23
76311;BME280;65120;59.304;18.294;2023-12-29T04:01:02;99231.28;;;0.91;82.17
76311;BME280;65120;59.304;18.294;2023-12-29T04:03:29;99226.13;;;0.91;81.85
76311;BME280;65120;59.304;18.294;2023-12-29T04:05:57;99216.72;;;0.89;81.73
76311;BME280;65120;59.304;18.294;2023-12-29T04:08:24;99214.13;;;0.87;82.29
76311;BME280;65120;59.304;18.294;2023-12-29T04:10:51;99217.56;;;0.91;81.94
76311;BME280;65120;59.304;18.294;2023-12-29T04:13:18;99208.97;;;0.90;82.13
76311;BME280;65120;59.304;18.294;2023-12-29T04:15:45;99205.53;;;0.90;82.10
76311;BME280;65120;59.304;18.294;2023-12-29T04:18:12;99195.25;;;0.88;82.29
76311;BME280;65120;59.304;18.294;2023-12-29T04:20:39;99202.09;;;0.92;82.03
76311;BME280;65120;59.304;18.294;2023-12-29T04:23:07;99197.78;;;0.93;81.95
76311;BME280;65120;59.304;18.294;2023-12-29T04:25:34;99191.78;;;0.92;82.14
76311;BME280;65120;59.304;18.294;2023-12-29T04:28:01;99176.38;;;0.89;81.98
76311;BME280;65120;59.304;18.294;2023-12-29T04:30:28;99175.47;;;0.95;82.31
76311;BME280;65120;59.304;18.294;2023-12-29T04:32:55;99166.03;;;0.94;82.41
76311;BME280;65120;59.304;18.294;2023-12-29T04:35:22;99166.84;;;0.96;82.31
76311;BME280;65120;59.304;18.294;2023-12-29T04:37:49;99160.84;;;0.95;82.49
76311;BME280;65120;59.304;18.294;2023-12-29T04:40:18;99154.84;;;0.96;82.36
76311;BME280;65120;59.304;18.294;2023-12-29T04:42:45;99147.97;;;0.95;82.03
76311;BME280;65120;59.304;18.294;2023-12-29T04:45:12;99140.25;;;0.95;81.94
76311;BME280;65120;59.304;18.294;2023-12-29T04:47:39;99135.09;;;0.95;82.22
76311;BME280;65120;59.304;18.294;2023-12-29T04:50:07;99127.41;;;0.94;82.31
76311;BME280;65120;59.304;18.294;2023-12-29T04:52:34;99119.69;;;0.94;82.50
76311;BME280;65120;59.304;18.294;2023-12-29T04:55:01;99117.97;;;0.94;82.14
76311;BME280;65120;59.304;18.294;2023-12-29T04:57:29;99107.66;;;0.94;82.67
76311;BME280;65120;59.304;18.294;2023-12-29T04:59:56;99099.91;;;0.96;82.07
76311;BME280;65120;59.304;18.294;2023-12-29T05:02:23;99088.75;;;0.95;82.45
76311;BME280;65120;59.304;18.294;2023-12-29T05:04:50;99087.06;;;0.94;82.76
76311;BME280;65120;59.304;18.294;2023-12-29T05:07:17;99076.75;;;0.93;82.66
76311;BME280;65120;59.304;18.294;2023-12-29T05:09:44;99083.63;;;0.92;82.81
76311;BME280;65120;59.304;18.294;2023-12-29T05:12:10;99070.75;;;0.94;82.35
76311;BME280;65120;59.304;18.294;2023-12-29T05:14:39;99055.31;;;0.94;82.52
76311;BME280;65120;59.304;18.294;2023-12-29T05:17:06;99042.47;;;0.91;83.00
76311;BME280;65120;59.304;18.294;2023-12-29T05:19:34;99045.84;;;0.94;82.55
76311;BME280;65120;59.304;18.294;2023-12-29T05:22:00;99044.13;;;0.93;82.72
76311;BME280;65120;59.304;18.294;2023-12-29T05:24:27;99034.72;;;0.94;82.90
76311;BME280;65120;59.304;18.294;2023-12-29T05:26:54;99020.97;;;0.93;82.61
76311;BME280;65120;59.304;18.294;2023-12-29T05:29:21;99016.66;;;0.95;82.99
76311;BME280;65120;59.304;18.294;2023-12-29T05:31:50;99012.34;;;0.96;82.87
76311;BME280;65120;59.304;18.294;2023-12-29T05:34:16;98982.44;;;0.84;83.13
76311;BME280;65120;59.304;18.294;2023-12-29T05:36:43;99002.94;;;0.95;83.09
76311;BME280;65120;59.304;18.294;2023-12-29T05:39:10;98998.63;;;0.95;83.31
76311;BME280;65120;59.304;18.294;2023-12-29T05:41:37;99002.03;;;0.96;83.14
76311;BME280;65120;59.304;18.294;2023-12-29T05:44:04;99001.16;;;0.98;83.21
76311;BME280;65120;59.304;18.294;2023-12-29T05:46:31;98997.72;;;0.99;83.13
76311;BME280;65120;59.304;18.294;2023-12-29T05:48:59;98988.28;;;0.98;83.78
76311;BME280;65120;59.304;18.294;2023-12-29T05:51:26;98980.50;;;1.01;83.63
76311;BME280;65120;59.304;18.294;2023-12-29T05:53:53;98976.19;;;1.05;83.52
76311;BME280;65120;59.304;18.294;2023-12-29T05:56:20;98960.75;;;1.03;83.43
76311;BME280;65120;59.304;18.294;2023-12-29T05:58:47;98947.88;;;1.02;83.58
76311;BME280;65120;59.304;18.294;2023-12-29T06:01:14;98952.94;;;1.10;83.74
76311;BME280;65120;59.304;18.294;2023-12-29T06:03:41;98941.78;;;1.09;83.84
76311;BME280;65120;59.304;18.294;2023-12-29T06:06:10;98946.06;;;1.12;83.87
76311;BME280;65120;59.304;18.294;2023-12-29T06:08:37;98941.75;;;1.14;83.97
76311;BME280;65120;59.304;18.294;2023-12-29T06:11:04;98934.03;;;1.14;84.04
76311;BME280;65120;59.304;18.294;2023-12-29T06:13:31;98926.28;;;1.14;84.25
76311;BME280;65120;59.304;18.294;2023-12-29T06:15:58;98930.50;;;1.18;84.14
76311;BME280;65120;59.304;18.294;2023-12-29T06:18:25;98917.63;;;1.19;84.01
76311;BME280;65120;59.304;18.294;2023-12-29T06:20:52;98915.84;;;1.23;84.31
76311;BME280;65120;59.304;18.294;2023-12-29T06:23:21;98908.13;;;1.21;84.29
76311;BME280;65120;59.304;18.294;2023-12-29T06:25:48;98902.97;;;1.23;83.97
76311;BME280;65120;59.304;18.294;2023-12-29T06:28:14;98909.75;;;1.27;84.30
76311;BME280;65120;59.304;18.294;2023-12-29T06:30:41;98906.38;;;1.25;84.21
76311;BME280;65120;59.304;18.294;2023-12-29T06:33:08;98908.03;;;1.29;84.42
76311;BME280;65120;59.304;18.294;2023-12-29T06:35:35;98911.44;;;1.31;84.23
76311;BME280;65120;59.304;18.294;2023-12-29T06:38:04;98913.97;;;1.33;83.74
76311;BME280;65120;59.304;18.294;2023-12-29T06:40:32;98907.97;;;1.34;84.11
76311;BME280;65120;59.304;18.294;2023-12-29T06:42:59;98898.50;;;1.33;83.83
76311;BME280;65120;59.304;18.294;2023-12-29T06:45:26;98901.09;;;1.34;83.91
76311;BME280;65120;59.304;18.294;2023-12-29T06:47:53;98902.78;;;1.35;83.70
76311;BME280;65120;59.304;18.294;2023-12-29T06:50:20;98902.75;;;1.37;84.04
76311;BME280;65120;59.304;18.294;2023-12-29T06:52:47;98895.88;;;1.37;83.67
76311;BME280;65120;59.304;18.294;2023-12-29T06:55:14;98884.78;;;1.32;83.98
76311;BME280;65120;59.304;18.294;2023-12-29T06:57:43;98892.41;;;1.38;84.14
76311;BME280;65120;59.304;18.294;2023-12-29T07:00:11;98885.53;;;1.40;84.19
76311;BME280;65120;59.304;18.294;2023-12-29T07:02:38;98893.25;;;1.40;84.17
76311;BME280;65120;59.304;18.294;2023-12-29T07:05:06;98892.38;;;1.41;84.14
76311;BME280;65120;59.304;18.294;2023-12-29T07:07:33;98889.78;;;1.43;84.29
76311;BME280;65120;59.304;18.294;2023-12-29T07:10:00;98891.47;;;1.44;84.32
76311;BME280;65120;59.304;18.294;2023-12-29T07:12:29;98894.03;;;1.45;83.88
76311;BME280;65120;59.304;18.294;2023-12-29T07:14:57;98892.31;;;1.46;84.36
76311;BME280;65120;59.304;18.294;2023-12-29T07:17:24;98883.69;;;1.47;83.91
76311;BME280;65120;59.304;18.294;2023-12-29T07:19:51;98891.41;;;1.47;83.98
76311;BME280;65120;59.304;18.294;2023-12-29T07:22:18;98889.69;;;1.49;84.27
76311;BME280;65120;59.304;18.294;2023-12-29T07:24:45;98887.94;;;1.50;83.88
76311;BME280;65120;59.304;18.294;2023-12-29T07:27:12;98892.25;;;1.51;84.15
76311;BME280;65120;59.304;18.294;2023-12-29T07:29:39;98894.78;;;1.52;84.10
76311;BME280;65120;59.304;18.294;2023-12-29T07:32:07;98894.78;;;1.52;84.19
76311;BME280;65120;59.304;18.294;2023-12-29T07:34:34;98903.34;;;1.53;84.37
76311;BME280;65120;59.304;18.294;2023-12-29T07:37:01;98897.34;;;1.54;84.36
76311;BME280;65120;59.304;18.294;2023-12-29T07:39:28;98893.88;;;1.55;84.26
76311;BME280;65120;59.304;18.294;2023-12-29T07:41:55;98900.72;;;1.56;84.20
76311;BME280;65120;59.304;18.294;2023-12-29T07:44:22;98893.88;;;1.56;84.06
76311;BME280;65120;59.304;18.294;2023-12-29T07:46:49;98892.16;;;1.57;84.07
76311;BME280;65120;59.304;18.294;2023-12-29T07:49:17;98894.69;;;1.58;84.09
76311;BME280;65120;59.304;18.294;2023-12-29T07:51:46;98885.22;;;1.59;84.44
76311;BME280;65120;59.304;18.294;2023-12-29T07:54:13;98894.66;;;1.60;84.37
76311;BME280;65120;59.304;18.294;2023-12-29T07:56:41;98889.53;;;1.58;84.36
76311;BME280;65120;59.304;18.294;2023-12-29T07:59:08;98889.47;;;1.61;84.52
76311;BME280;65120;59.304;18.294;2023-12-29T08:01:35;98900.66;;;1.62;84.33
76311;BME280;65120;59.304;18.294;2023-12-29T08:04:02;98890.34;;;1.62;84.43
76311;BME280;65120;59.304;18.294;2023-12-29T08:06:31;98889.47;;;1.63;84.43
76311;BME280;65120;59.304;18.294;2023-12-29T08:08:57;98893.72;;;1.64;84.46
76311;BME280;65120;59.304;18.294;2023-12-29T08:11:24;98888.56;;;1.64;84.62
76311;BME280;65120;59.304;18.294;2023-12-29T08:13:51;98900.59;;;1.65;84.83
76311;BME280;65120;59.304;18.294;2023-12-29T08:16:18;98893.66;;;1.67;84.58
76311;BME280;65120;59.304;18.294;2023-12-29T08:18:46;98900.56;;;1.68;84.86
76311;BME280;65120;59.304;18.294;2023-12-29T08:21:19;98885.13;;;1.65;84.90
76311;BME280;65120;59.304;18.294;2023-12-29T08:23:48;98891.88;;;1.72;85.15
76311;BME280;65120;59.304;18.294;2023-12-29T08:26:15;98883.41;;;1.64;84.46
76311;BME280;65120;59.304;18.294;2023-12-29T08:28:42;98894.41;;;1.75;85.08
76311;BME280;65120;59.304;18.294;2023-12-29T08:31:10;98892.72;;;1.74;85.09
76311;BME280;65120;59.304;18.294;2023-12-29T08:33:37;98901.22;;;1.78;84.79
76311;BME280;65120;59.304;18.294;2023-12-29T08:36:05;98900.34;;;1.80;85.15
76311;BME280;65120;59.304;18.294;2023-12-29T08:38:32;98893.53;;;1.76;85.16
76311;BME280;65120;59.304;18.294;2023-12-29T08:41:01;98904.56;;;1.84;85.19
76311;BME280;65120;59.304;18.294;2023-12-29T08:43:28;98906.28;;;1.85;84.98
76311;BME280;65120;59.304;18.294;2023-12-29T08:45:55;98910.53;;;1.86;85.25
76311;BME280;65120;59.304;18.294;2023-12-29T08:48:22;98918.22;;;1.89;85.40
76311;BME280;65120;59.304;18.294;2023-12-29T08:50:50;98908.78;;;1.88;85.33
76311;BME280;65120;59.304;18.294;2023-12-29T08:53:17;98913.00;;;1.92;85.33
76311;BME280;65120;59.304;18.294;2023-12-29T08:55:44;98918.16;;;1.94;85.46
76311;BME280;65120;59.304;18.294;2023-12-29T08:58:12;98920.69;;;1.96;85.44
76311;BME280;65120;59.304;18.294;2023-12-29T09:00:39;98926.69;;;1.98;85.43
76311;BME280;65120;59.304;18.294;2023-12-29T09:03:06;98920.63;;;1.99;85.48
76311;BME280;65120;59.304;18.294;2023-12-29T09:05:33;98922.34;;;2.00;85.47
76311;BME280;65120;59.304;18.294;2023-12-29T09:08:00;98923.19;;;2.02;85.48
76311;BME280;65120;59.304;18.294;2023-12-29T09:10:27;98924.84;;;2.04;85.08
76311;BME280;65120;59.304;18.294;2023-12-29T09:12:54;98926.56;;;2.05;85.65
76311;BME280;65120;59.304;18.294;2023-12-29T09:15:22;98935.13;;;2.06;85.69
76311;BME280;65120;59.304;18.294;2023-12-29T09:17:49;98935.94;;;2.09;85.61
76311;BME280;65120;59.304;18.294;2023-12-29T09:20:16;98947.94;;;2.12;85.64
76311;BME280;65120;59.304;18.294;2023-12-29T09:22:43;98938.44;;;2.12;85.72
76311;BME280;65120;59.304;18.294;2023-12-29T09:25:10;98935.84;;;2.14;85.57
76311;BME280;65120;59.304;18.294;2023-12-29T09:27:38;98941.84;;;2.16;85.62
76311;BME280;65120;59.304;18.294;2023-12-29T09:30:06;98950.44;;;2.17;85.56
76311;BME280;65120;59.304;18.294;2023-12-29T09:32:34;98946.91;;;2.21;85.65
76311;BME280;65120;59.304;18.294;2023-12-29T09:35:01;98956.31;;;2.23;85.68
76311;BME280;65120;59.304;18.294;2023-12-29T09:37:29;98958.03;;;2.24;85.70
76311;BME280;65120;59.304;18.294;2023-12-29T09:39:55;98956.38;;;2.22;85.64
76311;BME280;65120;59.304;18.294;2023-12-29T09:42:24;98961.44;;;2.26;85.63
76311;BME280;65120;59.304;18.294;2023-12-29T09:44:54;98958.00;;;2.27;85.48
76311;BME280;65120;59.304;18.294;2023-12-29T09:47:23;98963.94;;;2.29;85.55
76311;BME280;65120;59.304;18.294;2023-12-29T09:49:53;98959.63;;;2.30;85.64
76311;BME280;65120;59.304;18.294;2023-12-29T09:52:21;98951.91;;;2.30;85.85
76311;BME280;65120;59.304;18.294;2023-12-29T09:54:48;98963.06;;;2.32;85.83
76311;BME280;65120;59.304;18.294;2023-12-29T09:57:18;98959.59;;;2.33;85.73
76311;BME280;65120;59.304;18.294;2023-12-29T09:59:45;98953.56;;;2.34;85.59
76311;BME280;65120;59.304;18.294;2023-12-29T10:02:14;98955.25;;;2.35;85.65
76311;BME280;65120;59.304;18.294;2023-12-29T10:04:42;98958.69;;;2.35;85.57
76311;BME280;65120;59.304;18.294;2023-12-29T10:07:15;98962.94;;;2.38;85.60
76311;BME280;65120;59.304;18.294;2023-12-29T10:09:45;98962.91;;;2.40;85.48
76311;BME280;65120;59.304;18.294;2023-12-29T10:12:15;98958.59;;;2.40;85.93
76311;BME280;65120;59.304;18.294;2023-12-29T10:14:46;98959.44;;;2.42;85.62
76311;BME280;65120;59.304;18.294;2023-12-29T10:17:21;98956.91;;;2.39;85.48
76311;BME280;65120;59.304;18.294;2023-12-29T10:20:02;98962.88;;;2.43;85.15
76311;BME280;65120;59.304;18.294;2023-12-29T10:22:42;98961.13;;;2.45;85.49
76311;BME280;65120;59.304;18.294;2023-12-29T10:25:12;98962.81;;;2.46;85.50
76311;BME280;65120;59.304;18.294;2023-12-29T10:27:39;98964.50;;;2.47;85.67
76311;BME280;65120;59.304;18.294;2023-12-29T10:30:10;98966.22;;;2.48;85.64
76311;BME280;65120;59.304;18.294;2023-12-29T10:32:38;98967.91;;;2.49;85.62
76311;BME280;65120;59.304;18.294;2023-12-29T10:35:08;98966.16;;;2.49;85.60
76311;BME280;65120;59.304;18.294;2023-12-29T10:37:38;98967.88;;;2.50;85.77
76311;BME280;65120;59.304;18.294;2023-12-29T10:40:06;98966.16;;;2.51;85.79
76311;BME280;65120;59.304;18.294;2023-12-29T10:42:33;98968.72;;;2.51;85.69
76311;BME280;65120;59.304;18.294;2023-12-29T10:45:07;98971.25;;;2.54;85.64
76311;BME280;65120;59.304;18.294;2023-12-29T10:47:34;98963.50;;;2.54;85.82
76311;BME280;65120;59.304;18.294;2023-12-29T10:50:02;98968.63;;;2.55;85.60
76311;BME280;65120;59.304;18.294;2023-12-29T10:52:31;98966.03;;;2.57;85.55
76311;BME280;65120;59.304;18.294;2023-12-29T10:55:08;98960.88;;;2.57;85.65
76311;BME280;65120;59.304;18.294;2023-12-29T10:57:36;98965.13;;;2.58;85.47
76311;BME280;65120;59.304;18.294;2023-12-29T11:00:04;98964.28;;;2.59;85.56
76311;BME280;65120;59.304;18.294;2023-12-29T11:02:33;98965.97;;;2.60;85.50
76311;BME280;65120;59.304;18.294;2023-12-29T11:05:05;98963.38;;;2.62;85.52
76311;BME280;65120;59.304;18.294;2023-12-29T11:07:33;98971.97;;;2.62;85.65
76311;BME280;65120;59.304;18.294;2023-12-29T11:10:02;98969.38;;;2.62;85.35
76311;BME280;65120;59.304;18.294;2023-12-29T11:12:32;98957.28;;;2.64;85.56
76311;BME280;65120;59.304;18.294;2023-12-29T11:15:01;98965.91;;;2.65;85.46
76311;BME280;65120;59.304;18.294;2023-12-29T11:17:30;98969.31;;;2.65;85.50
76311;BME280;65120;59.304;18.294;2023-12-29T11:19:58;98965.00;;;2.66;85.60
76311;BME280;65120;59.304;18.294;2023-12-29T11:22:28;98966.69;;;2.67;85.36
76311;BME280;65120;59.304;18.294;2023-12-29T11:24:56;98974.44;;;2.68;85.51
76311;BME280;65120;59.304;18.294;2023-12-29T11:27:27;98971.84;;;2.68;85.45
76311;BME280;65120;59.304;18.294;2023-12-29T11:29:58;98968.34;;;2.71;85.46
76311;BME280;65120;59.304;18.294;2023-12-29T11:32:31;98967.47;;;2.72;85.38
76311;BME280;65120;59.304;18.294;2023-12-29T11:35:06;98960.56;;;2.72;85.44
76311;BME280;65120;59.304;18.294;2023-12-29T11:37:47;98963.97;;;2.74;85.44
76311;BME280;65120;59.304;18.294;2023-12-29T11:40:21;98960.56;;;2.72;85.28
76311;BME280;65120;59.304;18.294;2023-12-29T11:42:53;98963.06;;;2.75;85.37
76311;BME280;65120;59.304;18.294;2023-12-29T11:45:27;98963.91;;;2.77;85.37
76311;BME280;65120;59.304;18.294;2023-12-29T11:47:54;98961.38;;;2.76;85.27
76311;BME280;65120;59.304;18.294;2023-12-29T11:50:29;98963.91;;;2.77;85.29
76311;BME280;65120;59.304;18.294;2023-12-29T11:52:57;98959.59;;;2.78;85.22
76311;BME280;65120;59.304;18.294;2023-12-29T11:55:29;98963.91;;;2.77;85.26
76311;BME280;65120;59.304;18.294;2023-12-29T11:57:57;98969.00;;;2.80;85.11
76311;BME280;65120;59.304;18.294;2023-12-29T12:00:46;98959.50;;;2.82;85.10
76311;BME280;65120;59.304;18.294;2023-12-29T12:03:17;98970.72;;;2.81;84.98
76311;BME280;65120;59.304;18.294;2023-12-29T12:05:47;98967.25;;;2.82;85.13
76311;BME280;65120;59.304;18.294;2023-12-29T12:08:28;98962.09;;;2.82;85.05
76311;BME280;65120;59.304;18.294;2023-12-29T12:10:55;98960.41;;;2.81;84.98
76311;BME280;65120;59.304;18.294;2023-12-29T12:13:44;98958.63;;;2.83;84.96
76311;BME280;65120;59.304;18.294;2023-12-29T12:19:13;98963.78;;;2.83;84.96
76311;BME280;65120;59.304;18.294;2023-12-29T12:21:41;98965.50;;;2.85;84.64
76311;BME280;65120;59.304;18.294;2023-12-29T12:24:08;98966.34;;;2.85;84.65
76311;BME280;65120;59.304;18.294;2023-12-29T12:26:35;98967.19;;;2.86;84.63
76311;BME280;65120;59.304;18.294;2023-12-29T12:29:02;98969.78;;;2.86;84.70
76311;BME280;65120;59.304;18.294;2023-12-29T12:31:29;98967.19;;;2.87;84.73
76311;BME280;65120;59.304;18.294;2023-12-29T12:33:56;98972.34;;;2.87;84.57
76311;BME280;65120;59.304;18.294;2023-12-29T12:36:25;98957.72;;;2.86;84.23
76311;BME280;65120;59.304;18.294;2023-12-29T12:38:52;98965.44;;;2.88;84.47
76311;BME280;65120;59.304;18.294;2023-12-29T12:41:20;98961.13;;;2.87;84.50
76311;BME280;65120;59.304;18.294;2023-12-29T12:43:56;98959.44;;;2.87;84.48
76311;BME280;65120;59.304;18.294;2023-12-29T12:46:24;98956.84;;;2.87;84.45
76311;BME280;65120;59.304;18.294;2023-12-29T12:48:51;98961.13;;;2.87;84.37
76311;BME280;65120;59.304;18.294;2023-12-29T12:51:19;98954.28;;;2.86;84.41
76311;BME280;65120;59.304;18.294;2023-12-29T12:53:48;98950.06;;;2.81;84.09
76311;BME280;65120;59.304;18.294;2023-12-29T12:56:17;98951.69;;;2.86;84.01
76311;BME280;65120;59.304;18.294;2023-12-29T12:58:46;98951.75;;;2.82;84.11
76311;BME280;65120;59.304;18.294;2023-12-29T13:01:13;98950.00;;;2.85;84.12
76311;BME280;65120;59.304;18.294;2023-12-29T13:03:40;98954.28;;;2.84;84.25
76311;BME280;65120;59.304;18.294;2023-12-29T13:06:07;98950.00;;;2.85;83.90
76311;BME280;65120;59.304;18.294;2023-12-29T13:08:34;98952.59;;;2.83;84.01